createdAt,value
2019-06-01T00:01:12.006Z,99.26
2019-06-01T00:03:42.773Z,99.73
2019-06-01T00:06:13.625Z,100.00
2019-06-01T00:27:05.240Z,100.00
2019-06-01T00:29:40.541Z,100.00
2019-06-01T00:32:11.272Z,100.00
2019-06-01T00:34:47.685Z,100.00
2019-06-01T00:37:20.939Z,100.00
2019-06-01T00:39:53.360Z,100.00
2019-06-01T00:42:25.960Z,100.00
2019-06-01T00:44:58.799Z,100.00
2019-06-01T00:47:30.277Z,100.00
2019-06-01T00:50:00.979Z,100.00
2019-06-01T00:52:34.174Z,100.00
2019-06-01T00:55:05.672Z,100.00
2019-06-01T00:57:36.022Z,100.00
2019-06-01T01:00:07.384Z,100.00
2019-06-01T01:02:37.913Z,100.00
2019-06-01T01:05:22.331Z,100.00
2019-06-01T01:07:53.516Z,100.00
2019-06-01T01:10:24.587Z,100.00
2019-06-01T01:13:13.405Z,100.00
2019-06-01T01:15:43.803Z,100.00
2019-06-01T01:18:17.887Z,100.00
2019-06-01T01:20:52.041Z,100.00
2019-06-01T01:23:22.453Z,100.00
2019-06-01T01:25:52.820Z,100.00
2019-06-01T01:28:28.379Z,100.00
2019-06-01T01:31:13.349Z,100.00
2019-06-01T01:33:36.479Z,100.00
2019-06-01T01:36:07.307Z,100.00
2019-06-01T01:38:43.258Z,100.00
2019-06-01T01:41:15.413Z,100.00
2019-06-01T01:43:48.455Z,100.00
2019-06-01T01:46:18.879Z,100.00
2019-06-01T01:48:49.914Z,100.00
2019-06-01T01:51:25.424Z,100.00
2019-06-01T01:53:59.999Z,100.00
2019-06-01T01:56:30.426Z,100.00
2019-06-01T01:59:04.371Z,100.00
2019-06-01T02:01:36.072Z,100.00
2019-06-01T02:04:10.328Z,100.00
2019-06-01T02:06:43.892Z,100.00
2019-06-01T02:09:14.429Z,100.00
2019-06-01T02:11:45.033Z,100.00
2019-06-01T02:14:15.367Z,100.00
2019-06-01T02:16:54.423Z,100.00
2019-06-01T02:19:24.812Z,100.00
2019-06-01T02:21:56.462Z,100.00
2019-06-01T02:24:26.971Z,100.00
2019-06-01T02:26:57.331Z,100.00
2019-06-01T02:29:27.792Z,100.00
2019-06-01T02:31:59.136Z,100.00
2019-06-01T02:34:30.136Z,100.00
2019-06-01T02:37:00.517Z,100.00
2019-06-01T02:39:31.038Z,100.00
2019-06-01T02:42:03.252Z,100.00
2019-06-01T02:44:33.767Z,100.00
2019-06-01T02:47:06.191Z,100.00
2019-06-01T02:49:39.818Z,100.00
2019-06-01T02:52:12.871Z,100.00
2019-06-01T02:54:43.194Z,100.00
2019-06-01T02:57:21.574Z,100.00
2019-06-01T02:59:52.205Z,100.00
2019-06-01T03:02:22.649Z,100.00
2019-06-01T03:04:55.046Z,100.00
2019-06-01T03:07:29.642Z,100.00
2019-06-01T03:10:01.243Z,100.00
2019-06-01T03:12:35.307Z,100.00
2019-06-01T03:15:09.078Z,100.00
2019-06-01T03:17:43.306Z,100.00
2019-06-01T03:20:14.307Z,100.00
2019-06-01T03:22:46.557Z,100.00
2019-06-01T03:25:17.161Z,100.00
2019-06-01T03:27:49.931Z,100.00
2019-06-01T03:30:30.684Z,100.00
2019-06-01T03:33:01.225Z,100.00
2019-06-01T03:35:32.028Z,100.00
2019-06-01T03:38:03.003Z,100.00
2019-06-01T03:40:33.289Z,100.00
2019-06-01T03:43:04.288Z,100.00
2019-06-01T03:45:37.649Z,100.00
2019-06-01T03:48:08.756Z,100.00
2019-06-01T03:50:41.832Z,100.00
2019-06-01T03:53:12.287Z,100.00
2019-06-01T03:55:42.856Z,100.00
2019-06-01T03:58:13.312Z,100.00
2019-06-01T04:00:46.203Z,100.00
2019-06-01T04:03:18.107Z,100.00
2019-06-01T04:05:51.813Z,100.00
2019-06-01T04:08:22.164Z,100.00
2019-06-01T04:10:52.869Z,100.00
2019-06-01T04:13:23.214Z,100.00
2019-06-01T04:15:53.540Z,100.00
2019-06-01T04:18:26.159Z,100.00
2019-06-01T04:20:57.520Z,100.00
2019-06-01T04:23:27.899Z,100.00
2019-06-01T04:25:59.612Z,100.00
2019-06-01T04:28:29.973Z,100.00
2019-06-01T04:31:00.269Z,100.00
2019-06-01T04:33:33.186Z,100.00
2019-06-01T04:36:04.819Z,100.00
2019-06-01T04:38:38.127Z,100.00
2019-06-01T04:41:09.767Z,100.00
2019-06-01T04:43:41.601Z,100.00
2019-06-01T04:46:18.183Z,100.00
2019-06-01T04:48:50.302Z,100.00
2019-06-01T04:53:58.653Z,100.00
2019-06-01T04:56:29.290Z,100.00
2019-06-01T04:58:59.670Z,100.00
2019-06-01T05:01:30.328Z,100.00
2019-06-01T05:04:04.917Z,100.00
2019-06-01T05:06:35.363Z,99.15
2019-06-01T05:09:09.282Z,98.04
2019-06-01T05:11:39.994Z,97.23
2019-06-01T05:14:17.927Z,96.94
2019-06-01T05:16:49.407Z,96.32
2019-06-01T05:19:20.023Z,95.61
2019-06-01T05:22:10.422Z,94.77
2019-06-01T05:24:41.707Z,94.39
2019-06-01T05:27:13.141Z,93.83
2019-06-01T05:29:43.792Z,93.06
2019-06-01T05:32:17.199Z,92.13
2019-06-01T05:34:51.971Z,91.86
2019-06-01T05:37:22.269Z,91.00
2019-06-01T05:39:52.654Z,90.12
2019-06-01T05:42:23.283Z,89.56
2019-06-01T05:44:53.594Z,88.86
2019-06-01T05:47:24.159Z,88.42
2019-06-01T05:49:54.605Z,88.24
2019-06-01T05:52:28.991Z,87.16
2019-06-01T05:54:59.491Z,86.97
2019-06-01T05:57:31.123Z,86.33
2019-06-01T06:00:03.875Z,85.55
2019-06-01T06:02:37.269Z,84.55
2019-06-01T06:05:10.645Z,84.45
2019-06-01T06:07:46.806Z,84.03
2019-06-01T06:10:18.416Z,82.95
2019-06-01T06:12:49.135Z,82.12
2019-06-01T06:15:21.890Z,81.43
2019-06-01T06:17:52.266Z,80.01
2019-06-01T06:20:25.253Z,79.56
2019-06-01T06:22:58.279Z,78.84
2019-06-01T06:25:33.303Z,78.30
2019-06-01T06:28:05.198Z,77.22
2019-06-01T06:30:39.937Z,76.62
2019-06-01T06:33:17.403Z,76.57
2019-06-01T06:35:48.028Z,75.82
2019-06-01T06:38:19.777Z,74.56
2019-06-01T06:40:53.904Z,73.71
2019-06-01T06:43:33.169Z,73.04
2019-06-01T06:46:04.889Z,72.38
2019-06-01T06:48:38.263Z,73.08
2019-06-01T06:51:11.833Z,73.21
2019-06-01T06:53:43.911Z,69.94
2019-06-01T06:56:16.236Z,69.16
2019-06-01T06:58:49.625Z,69.39
2019-06-01T07:01:25.011Z,69.44
2019-06-01T07:04:11.788Z,69.25
2019-06-01T07:06:32.153Z,68.96
2019-06-01T07:09:09.025Z,68.08
2019-06-01T07:11:39.353Z,67.55
2019-06-01T07:14:09.941Z,66.97
2019-06-01T07:16:40.260Z,66.97
2019-06-01T07:19:13.795Z,65.97
2019-06-01T07:21:45.124Z,64.31
2019-06-01T07:24:15.745Z,63.83
2019-06-01T07:26:46.127Z,63.68
2019-06-01T07:29:16.441Z,62.74
2019-06-01T07:31:46.735Z,61.13
2019-06-01T07:34:31.045Z,61.33
2019-06-01T07:36:52.623Z,59.45
2019-06-01T07:39:24.748Z,60.79
2019-06-01T07:41:55.282Z,61.33
2019-06-01T07:44:26.851Z,57.68
2019-06-01T07:46:57.368Z,58.97
2019-06-01T07:49:27.618Z,58.02
2019-06-01T07:51:58.453Z,58.47
2019-06-01T07:54:32.704Z,57.76
2019-06-01T07:57:12.258Z,55.87
2019-06-01T07:59:43.677Z,53.15
2019-06-01T08:02:14.203Z,51.96
2019-06-01T08:04:53.565Z,54.29
2019-06-01T08:07:16.782Z,55.71
2019-06-01T08:09:47.168Z,50.18
2019-06-01T08:12:19.020Z,51.17
2019-06-01T08:14:49.411Z,50.56
2019-06-01T08:17:19.711Z,49.56
2019-06-01T08:19:53.749Z,45.56
2019-06-01T08:22:24.156Z,44.24
2019-06-01T08:24:54.599Z,44.68
2019-06-01T08:27:28.715Z,46.38
2019-06-01T08:29:59.138Z,46.17
2019-06-01T08:32:31.280Z,42.77
2019-06-01T08:35:11.568Z,43.50
2019-06-01T08:37:42.260Z,41.89
2019-06-01T08:40:15.600Z,41.73
2019-06-01T08:42:48.276Z,42.85
2019-06-01T08:45:23.533Z,40.50
2019-06-01T08:47:54.126Z,37.52
2019-06-01T08:50:25.699Z,36.70
2019-06-01T08:52:56.220Z,35.24
2019-06-01T08:55:28.116Z,34.73
2019-06-01T08:57:58.616Z,39.41
2019-06-01T09:00:32.668Z,37.25
2019-06-01T09:03:07.435Z,35.99
2019-06-01T09:05:38.722Z,33.96
2019-06-01T09:08:10.171Z,33.59
2019-06-01T09:10:40.819Z,32.29
2019-06-01T09:13:12.504Z,34.72
2019-06-01T09:15:44.483Z,32.62
2019-06-01T09:18:21.117Z,34.77
2019-06-01T09:20:53.240Z,32.04
2019-06-01T09:23:27.599Z,31.37
2019-06-01T09:26:12.039Z,30.94
2019-06-01T09:28:46.167Z,34.25
2019-06-01T09:31:32.697Z,33.25
2019-06-01T09:34:08.363Z,33.52
2019-06-01T09:37:05.983Z,31.27
2019-06-01T09:39:40.415Z,31.22
2019-06-01T09:42:12.504Z,31.01
2019-06-01T09:44:46.601Z,31.26
2019-06-01T09:47:19.654Z,32.00
2019-06-01T09:49:50.242Z,33.50
2019-06-01T09:52:22.715Z,29.45
2019-06-01T09:54:53.459Z,27.41
2019-06-01T09:57:24.037Z,27.66
2019-06-01T10:00:01.714Z,28.95
2019-06-01T10:02:40.650Z,29.56
2019-06-01T10:05:16.770Z,29.68
2019-06-01T10:07:59.482Z,27.97
2019-06-01T10:10:42.839Z,29.17
2019-06-01T10:13:27.920Z,27.95
2019-06-01T10:15:58.994Z,29.78
2019-06-01T10:18:35.107Z,29.34
2019-06-01T10:21:15.293Z,28.14
2019-06-01T10:23:49.971Z,29.49
2019-06-01T10:26:26.784Z,25.81
2019-06-01T10:29:13.785Z,25.88
2019-06-01T10:32:26.839Z,29.22
2019-06-01T10:37:46.090Z,27.15
2019-06-01T10:40:24.989Z,27.50
2019-06-01T10:43:24.333Z,28.94
2019-06-01T10:45:58.576Z,31.68
2019-06-01T10:51:40.364Z,30.73
2019-06-01T10:54:19.800Z,30.99
2019-06-01T10:56:55.543Z,31.50
2019-06-01T10:59:36.303Z,30.43
2019-06-01T11:02:16.510Z,32.94
2019-06-01T11:04:49.552Z,33.10
2019-06-01T11:08:30.006Z,31.86
2019-06-01T11:11:02.523Z,32.21
2019-06-01T11:13:39.374Z,33.59
2019-06-01T11:16:16.410Z,33.02
2019-06-01T11:19:11.774Z,31.78
2019-06-01T11:22:09.292Z,33.31
2019-06-01T11:24:50.880Z,33.33
2019-06-01T11:27:33.552Z,32.14
2019-06-01T11:30:28.910Z,32.81
2019-06-01T11:33:13.371Z,31.57
2019-06-01T11:36:08.614Z,31.44
2019-06-01T11:38:42.724Z,29.51
2019-06-01T11:41:23.862Z,27.52
2019-06-01T11:45:03.610Z,25.01
2019-06-01T11:50:43.026Z,23.46
2019-06-01T11:53:14.525Z,23.47
2019-06-01T11:55:48.470Z,24.76
2019-06-01T12:02:21.944Z,26.38
2019-06-01T12:04:54.032Z,28.65
2019-06-01T12:07:35.893Z,27.04
2019-06-01T12:10:11.178Z,28.21
2019-06-01T12:12:44.793Z,27.50
2019-06-01T12:15:18.893Z,26.45
2019-06-01T12:17:49.588Z,26.29
2019-06-01T12:20:24.936Z,24.50
2019-06-01T12:23:00.241Z,24.33
2019-06-01T12:25:33.831Z,25.35
2019-06-01T12:28:11.714Z,27.55
2019-06-01T12:30:49.823Z,30.30
2019-06-01T12:33:22.387Z,25.98
2019-06-01T12:35:55.803Z,24.96
2019-06-01T12:38:27.205Z,25.13
2019-06-01T12:41:03.265Z,25.86
2019-06-01T12:43:36.667Z,25.83
2019-06-01T12:46:10.426Z,26.92
2019-06-01T12:48:46.393Z,25.67
2019-06-01T12:51:22.825Z,27.50
2019-06-01T12:53:56.600Z,25.48
2019-06-01T12:56:32.654Z,24.88
2019-06-01T13:02:15.198Z,26.43
2019-06-01T13:04:49.091Z,25.15
2019-06-01T13:07:22.533Z,26.11
2019-06-01T13:09:54.390Z,23.09
2019-06-01T13:12:24.652Z,22.30
2019-06-01T13:15:08.289Z,19.87
2019-06-01T13:17:41.063Z,19.38
2019-06-01T13:20:12.004Z,19.01
2019-06-01T13:22:43.472Z,17.51
2019-06-01T13:25:14.140Z,18.72
2019-06-01T13:27:44.425Z,17.65
2019-06-01T13:30:16.737Z,18.06
2019-06-01T13:32:46.917Z,18.46
2019-06-01T13:35:20.810Z,18.95
2019-06-01T13:38:11.945Z,16.06
2019-06-01T13:40:37.538Z,18.18
2019-06-01T13:43:11.949Z,16.56
2019-06-01T13:45:43.191Z,17.81
2019-06-01T13:48:22.483Z,17.31
2019-06-01T13:50:55.612Z,18.40
2019-06-01T13:53:25.915Z,19.95
2019-06-01T13:56:08.424Z,19.46
2019-06-01T13:58:41.194Z,20.53
2019-06-01T14:01:17.908Z,21.06
2019-06-01T14:03:49.365Z,23.66
2019-06-01T14:06:29.696Z,26.73
2019-06-01T14:09:01.695Z,27.95
2019-06-01T14:11:37.044Z,30.81
2019-06-01T14:14:07.669Z,31.14
2019-06-01T14:16:47.487Z,32.93
2019-06-01T14:19:18.000Z,35.33
2019-06-01T14:21:52.168Z,34.62
2019-06-01T14:24:25.261Z,32.71
2019-06-01T14:27:46.321Z,24.84
2019-06-01T14:30:18.266Z,21.61
2019-06-01T14:32:52.569Z,20.00
2019-06-01T14:35:22.838Z,21.79
2019-06-01T14:37:53.780Z,19.27
2019-06-01T14:40:27.099Z,18.77
2019-06-01T14:42:58.164Z,19.24
2019-06-01T14:45:34.665Z,18.41
2019-06-01T14:48:17.458Z,19.27
2019-06-01T14:50:47.801Z,17.83
2019-06-01T14:53:19.767Z,19.42
2019-06-01T14:55:55.830Z,19.04
2019-06-01T14:58:34.164Z,20.40
2019-06-01T15:01:05.825Z,21.38
2019-06-01T15:03:42.929Z,21.67
2019-06-01T15:06:13.286Z,23.17
2019-06-01T15:09:13.184Z,21.57
2019-06-01T15:11:25.807Z,20.13
2019-06-01T15:18:46.290Z,18.09
2019-06-01T15:24:37.761Z,19.59
2019-06-01T15:27:08.605Z,19.72
2019-06-01T15:29:43.878Z,17.74
2019-06-01T15:32:32.507Z,19.25
2019-06-01T15:35:22.309Z,20.55
2019-06-01T15:38:01.845Z,21.73
2019-06-01T15:40:30.680Z,25.21
2019-06-01T15:43:04.288Z,25.26
2019-06-01T15:45:41.383Z,27.59
2019-06-01T15:48:14.213Z,29.80
2019-06-01T15:50:46.999Z,28.39
2019-06-01T15:53:22.397Z,28.58
2019-06-01T15:56:11.664Z,29.04
2019-06-01T15:58:52.274Z,31.41
2019-06-01T16:01:20.144Z,29.34
2019-06-01T16:03:55.084Z,29.89
2019-06-01T16:06:27.256Z,30.28
2019-06-01T16:08:57.564Z,30.00
2019-06-01T16:11:36.492Z,29.99
2019-06-01T16:14:09.091Z,32.23
2019-06-01T16:17:12.277Z,30.71
2019-06-01T16:19:44.620Z,30.98
2019-06-01T16:22:19.481Z,30.88
2019-06-01T16:25:18.071Z,30.90
2019-06-01T16:28:05.656Z,30.50
2019-06-01T16:30:35.954Z,30.34
2019-06-01T16:33:20.093Z,30.24
2019-06-01T16:35:50.479Z,31.77
2019-06-01T16:38:20.822Z,31.74
2019-06-01T16:40:53.502Z,33.50
2019-06-01T16:43:25.974Z,32.60
2019-06-01T16:45:59.678Z,33.36
2019-06-01T16:48:30.261Z,32.25
2019-06-01T16:51:01.786Z,32.76
2019-06-01T16:53:32.535Z,32.33
2019-06-01T16:56:03.984Z,32.84
2019-06-01T16:58:38.077Z,32.66
2019-06-01T17:01:10.180Z,32.59
2019-06-01T17:03:43.196Z,34.27
2019-06-01T17:06:13.820Z,33.23
2019-06-01T17:08:50.518Z,36.66
2019-06-01T17:11:20.911Z,38.38
2019-06-01T17:13:53.232Z,36.02
2019-06-01T17:16:50.220Z,35.70
2019-06-01T17:19:27.402Z,38.15
2019-06-01T17:21:59.969Z,35.39
2019-06-01T17:24:30.248Z,35.31
2019-06-01T17:27:02.040Z,37.17
2019-06-01T17:29:33.387Z,39.06
2019-06-01T17:32:16.810Z,40.36
2019-06-01T17:34:44.391Z,36.18
2019-06-01T17:37:17.576Z,35.82
2019-06-01T17:39:47.925Z,37.12
2019-06-01T17:42:20.254Z,38.47
2019-06-01T17:44:56.834Z,37.21
2019-06-01T17:47:27.903Z,39.81
2019-06-01T17:50:26.230Z,41.40
2019-06-01T17:52:58.034Z,37.23
2019-06-01T17:55:35.185Z,40.46
2019-06-01T17:58:12.420Z,38.05
2019-06-01T18:00:53.899Z,41.74
2019-06-01T18:03:30.108Z,39.35
2019-06-01T18:06:03.676Z,43.18
2019-06-01T18:08:34.591Z,44.22
2019-06-01T18:11:08.737Z,45.22
2019-06-01T18:13:47.098Z,45.58
2019-06-01T18:16:21.251Z,47.49
2019-06-01T18:18:52.515Z,47.84
2019-06-01T18:21:35.745Z,48.14
2019-06-01T18:24:30.626Z,48.22
2019-06-01T18:27:06.551Z,49.16
2019-06-01T18:29:48.711Z,49.88
2019-06-01T18:32:18.766Z,49.48
2019-06-01T18:34:49.264Z,50.00
2019-06-01T18:37:24.058Z,50.48
2019-06-01T18:39:57.224Z,51.14
2019-06-01T18:42:30.807Z,52.13
2019-06-01T18:45:11.791Z,52.63
2019-06-01T18:48:00.667Z,53.37
2019-06-01T18:50:32.001Z,53.88
2019-06-01T18:53:06.329Z,54.46
2019-06-01T18:55:37.080Z,54.87
2019-06-01T18:58:14.991Z,55.52
2019-06-01T19:00:45.558Z,55.71
2019-06-01T19:03:19.490Z,56.30
2019-06-01T19:06:09.555Z,57.03
2019-06-01T19:08:45.183Z,57.14
2019-06-01T19:11:29.409Z,57.52
2019-06-01T19:13:49.939Z,58.39
2019-06-01T19:16:30.615Z,58.91
2019-06-01T19:19:01.002Z,58.86
2019-06-01T19:21:31.495Z,57.10
2019-06-01T19:24:06.442Z,58.03
2019-06-01T19:26:38.207Z,58.94
2019-06-01T19:29:17.828Z,60.08
2019-06-01T19:32:04.246Z,59.69
2019-06-01T19:34:40.129Z,59.76
2019-06-01T19:37:17.201Z,60.45
2019-06-01T19:39:47.583Z,60.76
2019-06-01T19:42:18.949Z,61.00
2019-06-01T19:45:28.786Z,61.85
2019-06-01T19:47:57.285Z,61.93
2019-06-01T19:50:29.185Z,62.42
2019-06-01T19:52:59.943Z,63.10
2019-06-01T19:55:38.410Z,63.03
2019-06-01T19:58:12.138Z,63.84
2019-06-01T20:00:46.703Z,64.09
2019-06-01T20:03:21.535Z,64.33
2019-06-01T20:05:56.997Z,64.64
2019-06-01T20:08:27.294Z,64.69
2019-06-01T20:11:01.487Z,65.18
2019-06-01T20:13:42.236Z,65.89
2019-06-01T20:16:32.821Z,65.98
2019-06-01T20:19:18.090Z,66.56
2019-06-01T20:21:49.705Z,66.72
2019-06-01T20:24:25.656Z,66.85
2019-06-01T20:26:58.803Z,67.15
2019-06-01T20:29:33.039Z,67.46
2019-06-01T20:32:06.471Z,67.88
2019-06-01T20:34:41.688Z,68.39
2019-06-01T20:37:14.593Z,68.95
2019-06-01T20:39:49.604Z,69.53
2019-06-01T20:42:37.831Z,69.86
2019-06-01T20:45:16.782Z,70.12
2019-06-01T20:47:47.280Z,70.55
2019-06-01T20:50:25.531Z,71.22
2019-06-01T20:52:59.246Z,71.52
2019-06-01T20:55:34.196Z,71.99
2019-06-01T20:58:06.538Z,72.80
2019-06-01T21:00:39.973Z,73.30
2019-06-01T21:03:13.734Z,73.68
2019-06-01T21:05:52.185Z,73.58
2019-06-01T21:08:30.155Z,73.65
2019-06-01T21:11:03.149Z,74.32
2019-06-01T21:13:35.896Z,74.86
2019-06-01T21:16:07.675Z,75.15
2019-06-01T21:18:40.993Z,75.39
2019-06-01T21:21:11.874Z,75.88
2019-06-01T21:23:48.641Z,76.30
2019-06-01T21:26:21.082Z,76.89
2019-06-01T21:28:54.872Z,76.89
2019-06-01T21:31:27.718Z,77.49
2019-06-01T21:34:01.441Z,77.68
2019-06-01T21:36:36.379Z,77.46
2019-06-01T21:39:13.734Z,77.63
2019-06-01T21:41:46.624Z,77.64
2019-06-01T21:44:30.117Z,77.31
2019-06-01T21:46:52.002Z,77.32
2019-06-01T21:49:31.383Z,77.70
2019-06-01T21:52:04.060Z,77.71
2019-06-01T21:54:39.006Z,78.82
2019-06-01T21:57:11.802Z,79.35
2019-06-01T21:59:54.370Z,79.65
2019-06-01T22:02:25.149Z,80.22
2019-06-01T22:04:58.723Z,80.86
2019-06-01T22:07:31.319Z,81.48
2019-06-01T22:10:07.001Z,81.87
2019-06-01T22:12:40.584Z,82.85
2019-06-01T22:15:12.568Z,82.84
2019-06-01T22:17:48.565Z,83.25
2019-06-01T22:20:28.295Z,83.95
2019-06-01T22:23:12.142Z,84.71
2019-06-01T22:25:42.572Z,84.97
2019-06-01T22:28:13.645Z,85.57
2019-06-01T22:30:46.997Z,85.89
2019-06-01T22:33:22.658Z,86.05
2019-06-01T22:35:52.796Z,86.41
2019-06-01T22:38:27.866Z,86.72
2019-06-01T22:40:58.243Z,86.90
2019-06-01T22:43:43.432Z,87.03
2019-06-01T22:46:05.308Z,87.38
2019-06-01T22:48:38.225Z,87.83
2019-06-01T22:51:10.102Z,87.96
2019-06-01T22:53:41.810Z,88.20
2019-06-01T22:56:12.131Z,88.30
2019-06-01T22:58:42.692Z,88.61
2019-06-01T23:01:12.980Z,88.57
2019-06-01T23:03:43.240Z,88.83
2019-06-01T23:06:14.096Z,89.10
2019-06-01T23:08:47.780Z,89.48
2019-06-01T23:11:21.329Z,89.67
2019-06-01T23:14:05.252Z,89.65
2019-06-01T23:16:36.295Z,89.85
2019-06-01T23:19:08.260Z,90.27
2019-06-01T23:21:38.991Z,90.36
2019-06-01T23:24:09.410Z,90.43
2019-06-01T23:26:44.928Z,90.44
2019-06-01T23:29:18.255Z,90.60
2019-06-01T23:31:52.429Z,90.86
2019-06-01T23:34:30.771Z,90.89
2019-06-01T23:37:11.892Z,90.87
2019-06-01T23:39:44.798Z,90.83
2019-06-01T23:42:15.382Z,90.76
2019-06-01T23:44:45.634Z,90.96
2019-06-01T23:47:18.857Z,90.92
2019-06-01T23:49:49.303Z,91.28
2019-06-01T23:52:23.530Z,91.34
2019-06-01T23:54:53.242Z,91.23
2019-06-01T23:57:23.765Z,91.24
2019-06-01T23:59:54.180Z,91.41
